Lineboro, Maryland
Current Conditions -  °F | °C
As of 7:00 PM on Sunday 23 Nov 2014 (Local Time) from KDMW Reporting Station
Scattered Clouds Scattered Clouds  
Wind Chill: 41°   Ceiling: Unl
Heat Index: 46°   Visibility: 10mi
Dew Point: 30°   Wind: 10mph
Humidity: 53%   Direction: 130°SE
Pressure: 30.03"   Gusts: NA
Location:  39.72°N, 76.84°W
Report Text: KDMW 240000Z AUTO 13009KT 10SM SCT044 08/M01 A3003 RMK AO2
Loading
Personal Weather Stations






























Interactive Weather Map New forecast layout! Learn more

10-Day Weather Forecast

Advertisements
Track Severe Weather on mobile